sensor_id;sensor_type;location;lat;lon;timestamp;P1;durP1;ratioP1;P2;durP2;ratioP2
18445;SDS011;9352;50.888;4.466;2023-06-22T00:01:17;6.88;;;4.97;;
18445;SDS011;9352;50.888;4.466;2023-06-22T00:03:44;7.18;;;5.13;;
18445;SDS011;9352;50.888;4.466;2023-06-22T00:06:12;5.47;;;4.68;;
18445;SDS011;9352;50.888;4.466;2023-06-22T00:08:39;7.63;;;4.78;;
18445;SDS011;9352;50.888;4.466;2023-06-22T00:11:06;7.22;;;5.10;;
18445;SDS011;9352;50.888;4.466;2023-06-22T00:13:33;7.35;;;4.93;;
18445;SDS011;9352;50.888;4.466;2023-06-22T00:16:00;8.32;;;4.95;;
18445;SDS011;9352;50.888;4.466;2023-06-22T00:18:27;5.63;;;4.55;;
18445;SDS011;9352;50.888;4.466;2023-06-22T00:20:55;10.90;;;4.60;;
18445;SDS011;9352;50.888;4.466;2023-06-22T00:23:26;7.07;;;4.70;;
18445;SDS011;9352;50.888;4.466;2023-06-22T00:25:53;5.45;;;4.47;;
18445;SDS011;9352;50.888;4.466;2023-06-22T00:28:20;6.28;;;4.47;;
18445;SDS011;9352;50.888;4.466;2023-06-22T00:30:48;8.98;;;5.30;;
18445;SDS011;9352;50.888;4.466;2023-06-22T00:33:14;8.35;;;4.93;;
18445;SDS011;9352;50.888;4.466;2023-06-22T00:35:41;6.75;;;5.07;;
18445;SDS011;9352;50.888;4.466;2023-06-22T00:38:08;6.43;;;5.20;;
18445;SDS011;9352;50.888;4.466;2023-06-22T00:40:37;7.28;;;5.40;;
18445;SDS011;9352;50.888;4.466;2023-06-22T00:43:04;7.78;;;5.22;;
18445;SDS011;9352;50.888;4.466;2023-06-22T00:45:31;6.05;;;5.45;;
18445;SDS011;9352;50.888;4.466;2023-06-22T00:47:58;9.35;;;5.13;;
18445;SDS011;9352;50.888;4.466;2023-06-22T00:50:26;8.00;;;5.30;;
18445;SDS011;9352;50.888;4.466;2023-06-22T00:52:59;7.88;;;5.47;;
18445;SDS011;9352;50.888;4.466;2023-06-22T00:55:29;11.82;;;6.28;;
18445;SDS011;9352;50.888;4.466;2023-06-22T00:57:58;10.55;;;5.90;;
18445;SDS011;9352;50.888;4.466;2023-06-22T01:00:25;7.03;;;5.40;;
18445;SDS011;9352;50.888;4.466;2023-06-22T01:02:52;8.50;;;5.65;;
18445;SDS011;9352;50.888;4.466;2023-06-22T01:05:20;9.07;;;5.50;;
18445;SDS011;9352;50.888;4.466;2023-06-22T01:08:00;10.18;;;5.53;;
18445;SDS011;9352;50.888;4.466;2023-06-22T01:10:34;8.40;;;5.47;;
18445;SDS011;9352;50.888;4.466;2023-06-22T01:13:10;9.02;;;5.55;;
18445;SDS011;9352;50.888;4.466;2023-06-22T01:15:44;7.28;;;5.00;;
18445;SDS011;9352;50.888;4.466;2023-06-22T01:18:14;7.80;;;5.60;;
18445;SDS011;9352;50.888;4.466;2023-06-22T01:20:44;6.43;;;5.72;;
18445;SDS011;9352;50.888;4.466;2023-06-22T01:23:16;11.48;;;6.00;;
18445;SDS011;9352;50.888;4.466;2023-06-22T01:28:39;8.30;;;5.35;;
18445;SDS011;9352;50.888;4.466;2023-06-22T01:31:08;8.32;;;5.10;;
18445;SDS011;9352;50.888;4.466;2023-06-22T01:33:39;8.70;;;5.20;;
18445;SDS011;9352;50.888;4.466;2023-06-22T01:36:08;8.02;;;5.50;;
18445;SDS011;9352;50.888;4.466;2023-06-22T01:38:36;8.73;;;5.57;;
18445;SDS011;9352;50.888;4.466;2023-06-22T01:41:04;8.30;;;5.80;;
18445;SDS011;9352;50.888;4.466;2023-06-22T01:43:31;7.70;;;5.25;;
18445;SDS011;9352;50.888;4.466;2023-06-22T01:46:01;6.68;;;4.95;;
18445;SDS011;9352;50.888;4.466;2023-06-22T01:48:29;7.63;;;5.70;;
18445;SDS011;9352;50.888;4.466;2023-06-22T01:50:56;10.20;;;5.55;;
18445;SDS011;9352;50.888;4.466;2023-06-22T01:53:24;9.65;;;5.97;;
18445;SDS011;9352;50.888;4.466;2023-06-22T01:55:51;10.70;;;6.13;;
18445;SDS011;9352;50.888;4.466;2023-06-22T01:58:18;8.90;;;6.28;;
18445;SDS011;9352;50.888;4.466;2023-06-22T02:00:51;10.57;;;6.28;;
18445;SDS011;9352;50.888;4.466;2023-06-22T02:03:26;11.23;;;5.65;;
18445;SDS011;9352;50.888;4.466;2023-06-22T02:05:56;8.15;;;6.15;;
18445;SDS011;9352;50.888;4.466;2023-06-22T02:08:30;6.10;;;5.50;;
18445;SDS011;9352;50.888;4.466;2023-06-22T02:11:01;8.30;;;5.63;;
18445;SDS011;9352;50.888;4.466;2023-06-22T02:13:29;7.57;;;5.40;;
18445;SDS011;9352;50.888;4.466;2023-06-22T02:15:58;9.27;;;5.90;;
18445;SDS011;9352;50.888;4.466;2023-06-22T02:18:27;9.15;;;6.00;;
18445;SDS011;9352;50.888;4.466;2023-06-22T02:20:54;8.35;;;6.05;;
18445;SDS011;9352;50.888;4.466;2023-06-22T02:23:21;9.80;;;5.65;;
18445;SDS011;9352;50.888;4.466;2023-06-22T02:25:48;6.70;;;5.78;;
18445;SDS011;9352;50.888;4.466;2023-06-22T02:28:15;10.07;;;5.97;;
18445;SDS011;9352;50.888;4.466;2023-06-22T02:30:42;10.40;;;5.57;;
18445;SDS011;9352;50.888;4.466;2023-06-22T02:33:09;11.43;;;5.80;;
18445;SDS011;9352;50.888;4.466;2023-06-22T02:35:38;8.10;;;6.00;;
18445;SDS011;9352;50.888;4.466;2023-06-22T02:38:05;7.25;;;5.60;;
18445;SDS011;9352;50.888;4.466;2023-06-22T02:40:33;9.63;;;5.85;;
18445;SDS011;9352;50.888;4.466;2023-06-22T02:43:00;7.03;;;5.60;;
18445;SDS011;9352;50.888;4.466;2023-06-22T02:45:28;7.95;;;5.75;;
18445;SDS011;9352;50.888;4.466;2023-06-22T02:47:55;7.60;;;5.88;;
18445;SDS011;9352;50.888;4.466;2023-06-22T02:50:22;7.78;;;6.10;;
18445;SDS011;9352;50.888;4.466;2023-06-22T02:52:50;12.93;;;6.18;;
18445;SDS011;9352;50.888;4.466;2023-06-22T02:55:17;10.70;;;6.50;;
18445;SDS011;9352;50.888;4.466;2023-06-22T02:57:44;7.70;;;6.05;;
18445;SDS011;9352;50.888;4.466;2023-06-22T03:00:13;12.88;;;6.40;;
18445;SDS011;9352;50.888;4.466;2023-06-22T03:02:43;11.73;;;6.00;;
18445;SDS011;9352;50.888;4.466;2023-06-22T03:05:10;9.90;;;6.32;;
18445;SDS011;9352;50.888;4.466;2023-06-22T03:07:38;8.93;;;6.47;;
18445;SDS011;9352;50.888;4.466;2023-06-22T03:10:08;8.05;;;6.38;;
18445;SDS011;9352;50.888;4.466;2023-06-22T03:12:36;9.93;;;6.47;;
18445;SDS011;9352;50.888;4.466;2023-06-22T03:15:04;8.10;;;5.90;;
18445;SDS011;9352;50.888;4.466;2023-06-22T03:17:32;9.88;;;6.15;;
18445;SDS011;9352;50.888;4.466;2023-06-22T03:19:59;8.45;;;5.93;;
18445;SDS011;9352;50.888;4.466;2023-06-22T03:22:26;6.80;;;5.85;;
18445;SDS011;9352;50.888;4.466;2023-06-22T03:24:53;7.75;;;6.00;;
18445;SDS011;9352;50.888;4.466;2023-06-22T03:27:21;12.80;;;6.45;;
18445;SDS011;9352;50.888;4.466;2023-06-22T03:29:48;10.90;;;6.03;;
18445;SDS011;9352;50.888;4.466;2023-06-22T03:32:15;9.60;;;6.22;;
18445;SDS011;9352;50.888;4.466;2023-06-22T03:34:41;12.00;;;6.45;;
18445;SDS011;9352;50.888;4.466;2023-06-22T03:37:12;8.93;;;6.00;;
18445;SDS011;9352;50.888;4.466;2023-06-22T03:39:40;9.30;;;6.63;;
18445;SDS011;9352;50.888;4.466;2023-06-22T03:42:07;28.10;;;7.40;;
18445;SDS011;9352;50.888;4.466;2023-06-22T03:44:35;10.90;;;6.72;;
18445;SDS011;9352;50.888;4.466;2023-06-22T03:47:02;13.32;;;6.88;;
18445;SDS011;9352;50.888;4.466;2023-06-22T03:49:32;7.75;;;6.32;;
18445;SDS011;9352;50.888;4.466;2023-06-22T03:51:59;8.45;;;6.47;;
18445;SDS011;9352;50.888;4.466;2023-06-22T03:54:26;8.82;;;7.00;;
18445;SDS011;9352;50.888;4.466;2023-06-22T03:56:54;13.82;;;7.40;;
18445;SDS011;9352;50.888;4.466;2023-06-22T03:59:21;13.50;;;7.45;;
18445;SDS011;9352;50.888;4.466;2023-06-22T04:01:49;13.80;;;7.10;;
18445;SDS011;9352;50.888;4.466;2023-06-22T04:04:17;10.68;;;6.72;;
18445;SDS011;9352;50.888;4.466;2023-06-22T04:06:45;13.25;;;7.72;;
18445;SDS011;9352;50.888;4.466;2023-06-22T04:09:12;27.05;;;8.43;;
18445;SDS011;9352;50.888;4.466;2023-06-22T04:11:39;10.05;;;7.15;;
18445;SDS011;9352;50.888;4.466;2023-06-22T04:14:06;12.95;;;7.60;;
18445;SDS011;9352;50.888;4.466;2023-06-22T04:16:33;10.77;;;7.20;;
18445;SDS011;9352;50.888;4.466;2023-06-22T04:19:01;14.13;;;7.65;;
18445;SDS011;9352;50.888;4.466;2023-06-22T04:21:28;9.05;;;7.45;;
18445;SDS011;9352;50.888;4.466;2023-06-22T04:23:55;15.45;;;7.53;;
18445;SDS011;9352;50.888;4.466;2023-06-22T04:26:22;14.10;;;8.50;;
18445;SDS011;9352;50.888;4.466;2023-06-22T04:28:48;11.40;;;8.00;;
18445;SDS011;9352;50.888;4.466;2023-06-22T04:31:20;11.02;;;7.80;;
18445;SDS011;9352;50.888;4.466;2023-06-22T04:33:49;11.65;;;8.60;;
18445;SDS011;9352;50.888;4.466;2023-06-22T04:36:17;14.55;;;8.25;;
18445;SDS011;9352;50.888;4.466;2023-06-22T04:38:46;14.63;;;8.48;;
18445;SDS011;9352;50.888;4.466;2023-06-22T04:41:13;12.40;;;7.88;;
18445;SDS011;9352;50.888;4.466;2023-06-22T04:43:48;14.05;;;7.95;;
18445;SDS011;9352;50.888;4.466;2023-06-22T04:46:18;15.73;;;8.18;;
18445;SDS011;9352;50.888;4.466;2023-06-22T04:48:45;16.73;;;8.88;;
18445;SDS011;9352;50.888;4.466;2023-06-22T04:51:12;16.05;;;9.27;;
18445;SDS011;9352;50.888;4.466;2023-06-22T04:53:40;17.38;;;8.10;;
18445;SDS011;9352;50.888;4.466;2023-06-22T04:56:08;13.40;;;8.43;;
18445;SDS011;9352;50.888;4.466;2023-06-22T04:58:35;17.63;;;8.80;;
18445;SDS011;9352;50.888;4.466;2023-06-22T05:01:01;13.77;;;8.43;;
18445;SDS011;9352;50.888;4.466;2023-06-22T05:03:29;18.33;;;9.35;;
18445;SDS011;9352;50.888;4.466;2023-06-22T05:05:55;12.13;;;8.68;;
18445;SDS011;9352;50.888;4.466;2023-06-22T05:08:22;11.45;;;8.80;;
18445;SDS011;9352;50.888;4.466;2023-06-22T05:10:55;16.02;;;8.65;;
18445;SDS011;9352;50.888;4.466;2023-06-22T05:13:22;14.85;;;9.30;;
18445;SDS011;9352;50.888;4.466;2023-06-22T05:15:51;15.85;;;8.77;;
18445;SDS011;9352;50.888;4.466;2023-06-22T05:18:26;33.40;;;9.55;;
18445;SDS011;9352;50.888;4.466;2023-06-22T05:20:54;19.33;;;9.93;;
18445;SDS011;9352;50.888;4.466;2023-06-22T05:23:21;16.40;;;8.90;;
18445;SDS011;9352;50.888;4.466;2023-06-22T05:25:48;31.60;;;9.95;;
18445;SDS011;9352;50.888;4.466;2023-06-22T05:28:16;14.05;;;9.02;;
18445;SDS011;9352;50.888;4.466;2023-06-22T05:30:47;16.95;;;9.93;;
18445;SDS011;9352;50.888;4.466;2023-06-22T05:33:14;19.67;;;10.05;;
18445;SDS011;9352;50.888;4.466;2023-06-22T05:35:41;20.67;;;10.52;;
18445;SDS011;9352;50.888;4.466;2023-06-22T05:38:08;18.38;;;9.80;;
18445;SDS011;9352;50.888;4.466;2023-06-22T05:40:35;16.50;;;9.23;;
18445;SDS011;9352;50.888;4.466;2023-06-22T05:43:02;23.60;;;10.05;;
18445;SDS011;9352;50.888;4.466;2023-06-22T05:45:30;15.32;;;9.65;;
18445;SDS011;9352;50.888;4.466;2023-06-22T05:47:57;23.75;;;10.70;;
18445;SDS011;9352;50.888;4.466;2023-06-22T05:50:24;21.13;;;10.32;;
18445;SDS011;9352;50.888;4.466;2023-06-22T05:52:51;15.00;;;9.95;;
18445;SDS011;9352;50.888;4.466;2023-06-22T05:55:18;19.13;;;10.27;;
18445;SDS011;9352;50.888;4.466;2023-06-22T05:57:44;15.40;;;10.13;;
18445;SDS011;9352;50.888;4.466;2023-06-22T06:00:12;35.70;;;12.00;;
18445;SDS011;9352;50.888;4.466;2023-06-22T06:02:41;21.73;;;10.80;;
18445;SDS011;9352;50.888;4.466;2023-06-22T06:05:09;15.82;;;9.90;;
18445;SDS011;9352;50.888;4.466;2023-06-22T06:07:38;22.55;;;11.13;;
18445;SDS011;9352;50.888;4.466;2023-06-22T06:10:06;20.70;;;10.85;;
18445;SDS011;9352;50.888;4.466;2023-06-22T06:12:33;22.33;;;11.70;;
18445;SDS011;9352;50.888;4.466;2023-06-22T06:15:00;34.03;;;11.70;;
18445;SDS011;9352;50.888;4.466;2023-06-22T06:17:27;18.38;;;11.00;;
18445;SDS011;9352;50.888;4.466;2023-06-22T06:19:55;31.88;;;11.63;;
18445;SDS011;9352;50.888;4.466;2023-06-22T06:22:22;22.85;;;11.20;;
18445;SDS011;9352;50.888;4.466;2023-06-22T06:24:49;20.98;;;11.40;;
18445;SDS011;9352;50.888;4.466;2023-06-22T06:27:16;15.10;;;11.25;;
18445;SDS011;9352;50.888;4.466;2023-06-22T06:29:44;21.15;;;12.00;;
18445;SDS011;9352;50.888;4.466;2023-06-22T06:32:13;151.52;;;19.95;;
18445;SDS011;9352;50.888;4.466;2023-06-22T06:34:40;50.60;;;14.85;;
18445;SDS011;9352;50.888;4.466;2023-06-22T06:37:09;17.35;;;11.70;;
18445;SDS011;9352;50.888;4.466;2023-06-22T06:39:36;19.98;;;11.60;;
18445;SDS011;9352;50.888;4.466;2023-06-22T06:42:04;126.00;;;19.02;;
18445;SDS011;9352;50.888;4.466;2023-06-22T06:44:31;26.90;;;12.73;;
18445;SDS011;9352;50.888;4.466;2023-06-22T06:46:58;20.98;;;12.30;;
18445;SDS011;9352;50.888;4.466;2023-06-22T06:49:25;21.55;;;12.05;;
18445;SDS011;9352;50.888;4.466;2023-06-22T06:51:52;21.08;;;12.57;;
18445;SDS011;9352;50.888;4.466;2023-06-22T06:54:22;18.55;;;12.18;;
18445;SDS011;9352;50.888;4.466;2023-06-22T06:56:49;20.73;;;12.25;;
18445;SDS011;9352;50.888;4.466;2023-06-22T06:59:16;18.38;;;12.50;;
18445;SDS011;9352;50.888;4.466;2023-06-22T07:01:42;18.95;;;12.02;;
18445;SDS011;9352;50.888;4.466;2023-06-22T07:04:09;19.33;;;12.27;;
18445;SDS011;9352;50.888;4.466;2023-06-22T07:06:36;23.65;;;12.70;;
18445;SDS011;9352;50.888;4.466;2023-06-22T07:09:04;21.63;;;12.50;;
18445;SDS011;9352;50.888;4.466;2023-06-22T07:11:32;20.88;;;13.85;;
18445;SDS011;9352;50.888;4.466;2023-06-22T07:14:00;18.98;;;13.35;;
18445;SDS011;9352;50.888;4.466;2023-06-22T07:16:27;22.35;;;13.15;;
18445;SDS011;9352;50.888;4.466;2023-06-22T07:18:55;19.95;;;12.80;;
18445;SDS011;9352;50.888;4.466;2023-06-22T07:21:22;20.30;;;13.10;;
18445;SDS011;9352;50.888;4.466;2023-06-22T07:23:48;20.02;;;13.38;;
18445;SDS011;9352;50.888;4.466;2023-06-22T07:26:15;21.13;;;13.13;;
18445;SDS011;9352;50.888;4.466;2023-06-22T07:28:43;22.83;;;13.25;;
18445;SDS011;9352;50.888;4.466;2023-06-22T07:31:10;20.20;;;13.25;;
18445;SDS011;9352;50.888;4.466;2023-06-22T07:33:37;17.42;;;13.05;;
18445;SDS011;9352;50.888;4.466;2023-06-22T07:36:04;23.77;;;13.63;;
18445;SDS011;9352;50.888;4.466;2023-06-22T07:38:33;18.35;;;13.43;;
18445;SDS011;9352;50.888;4.466;2023-06-22T07:41:00;98.72;;;18.33;;
18445;SDS011;9352;50.888;4.466;2023-06-22T07:43:27;45.92;;;15.20;;
18445;SDS011;9352;50.888;4.466;2023-06-22T07:45:56;33.33;;;14.10;;
18445;SDS011;9352;50.888;4.466;2023-06-22T07:48:23;18.02;;;12.77;;
18445;SDS011;9352;50.888;4.466;2023-06-22T07:50:50;26.38;;;13.25;;
18445;SDS011;9352;50.888;4.466;2023-06-22T07:53:18;17.10;;;11.75;;
18445;SDS011;9352;50.888;4.466;2023-06-22T07:55:45;19.98;;;13.27;;
18445;SDS011;9352;50.888;4.466;2023-06-22T07:58:13;37.60;;;13.93;;
18445;SDS011;9352;50.888;4.466;2023-06-22T08:00:40;25.10;;;13.40;;
18445;SDS011;9352;50.888;4.466;2023-06-22T08:03:09;19.63;;;13.45;;
18445;SDS011;9352;50.888;4.466;2023-06-22T08:05:36;78.97;;;18.92;;
18445;SDS011;9352;50.888;4.466;2023-06-22T08:08:03;24.30;;;13.63;;
18445;SDS011;9352;50.888;4.466;2023-06-22T08:10:30;19.05;;;13.93;;
18445;SDS011;9352;50.888;4.466;2023-06-22T08:12:57;22.27;;;13.35;;
18445;SDS011;9352;50.888;4.466;2023-06-22T08:15:25;24.52;;;13.57;;
18445;SDS011;9352;50.888;4.466;2023-06-22T08:17:53;20.83;;;13.70;;
18445;SDS011;9352;50.888;4.466;2023-06-22T08:20:21;34.97;;;15.45;;
18445;SDS011;9352;50.888;4.466;2023-06-22T08:22:48;20.50;;;13.68;;
18445;SDS011;9352;50.888;4.466;2023-06-22T08:25:15;18.10;;;13.40;;
18445;SDS011;9352;50.888;4.466;2023-06-22T08:27:44;17.92;;;13.80;;
18445;SDS011;9352;50.888;4.466;2023-06-22T08:30:12;22.20;;;14.18;;
18445;SDS011;9352;50.888;4.466;2023-06-22T08:32:39;27.38;;;12.85;;
18445;SDS011;9352;50.888;4.466;2023-06-22T08:35:06;20.98;;;13.20;;
18445;SDS011;9352;50.888;4.466;2023-06-22T08:37:35;21.15;;;13.18;;
18445;SDS011;9352;50.888;4.466;2023-06-22T08:40:04;45.28;;;15.82;;
18445;SDS011;9352;50.888;4.466;2023-06-22T08:42:34;20.30;;;12.98;;
18445;SDS011;9352;50.888;4.466;2023-06-22T08:45:00;16.75;;;13.30;;
18445;SDS011;9352;50.888;4.466;2023-06-22T08:47:27;24.33;;;13.88;;
18445;SDS011;9352;50.888;4.466;2023-06-22T08:49:55;21.23;;;14.02;;
18445;SDS011;9352;50.888;4.466;2023-06-22T08:52:22;29.77;;;14.77;;
18445;SDS011;9352;50.888;4.466;2023-06-22T08:54:51;21.27;;;15.00;;
18445;SDS011;9352;50.888;4.466;2023-06-22T08:57:18;21.83;;;14.15;;
18445;SDS011;9352;50.888;4.466;2023-06-22T08:59:45;19.70;;;13.27;;
18445;SDS011;9352;50.888;4.466;2023-06-22T09:02:12;17.02;;;12.65;;
18445;SDS011;9352;50.888;4.466;2023-06-22T09:04:39;19.45;;;13.27;;
18445;SDS011;9352;50.888;4.466;2023-06-22T09:07:06;22.73;;;12.98;;
18445;SDS011;9352;50.888;4.466;2023-06-22T09:09:33;24.73;;;12.63;;
18445;SDS011;9352;50.888;4.466;2023-06-22T09:12:01;17.35;;;12.88;;
18445;SDS011;9352;50.888;4.466;2023-06-22T09:14:28;109.25;;;67.32;;
18445;SDS011;9352;50.888;4.466;2023-06-22T09:16:55;17.15;;;12.82;;
18445;SDS011;9352;50.888;4.466;2023-06-22T09:19:22;14.02;;;11.82;;
18445;SDS011;9352;50.888;4.466;2023-06-22T09:21:49;16.52;;;12.00;;
18445;SDS011;9352;50.888;4.466;2023-06-22T09:24:17;16.08;;;11.93;;
18445;SDS011;9352;50.888;4.466;2023-06-22T09:26:44;19.75;;;12.43;;
18445;SDS011;9352;50.888;4.466;2023-06-22T09:29:12;15.90;;;11.68;;
18445;SDS011;9352;50.888;4.466;2023-06-22T09:31:39;18.33;;;12.27;;
18445;SDS011;9352;50.888;4.466;2023-06-22T09:34:06;15.73;;;12.05;;
18445;SDS011;9352;50.888;4.466;2023-06-22T09:36:33;22.02;;;13.10;;
18445;SDS011;9352;50.888;4.466;2023-06-22T09:39:00;19.95;;;12.93;;
18445;SDS011;9352;50.888;4.466;2023-06-22T09:41:31;19.48;;;13.27;;
18445;SDS011;9352;50.888;4.466;2023-06-22T09:43:57;18.90;;;14.27;;
18445;SDS011;9352;50.888;4.466;2023-06-22T09:46:26;21.40;;;14.50;;
18445;SDS011;9352;50.888;4.466;2023-06-22T09:48:53;30.08;;;18.15;;
18445;SDS011;9352;50.888;4.466;2023-06-22T09:51:20;43.55;;;19.48;;
18445;SDS011;9352;50.888;4.466;2023-06-22T09:53:48;27.33;;;16.73;;
18445;SDS011;9352;50.888;4.466;2023-06-22T09:56:15;27.60;;;17.40;;
18445;SDS011;9352;50.888;4.466;2023-06-22T09:58:43;34.55;;;18.20;;
18445;SDS011;9352;50.888;4.466;2023-06-22T10:01:11;27.02;;;17.92;;
18445;SDS011;9352;50.888;4.466;2023-06-22T10:03:41;18.88;;;13.05;;
18445;SDS011;9352;50.888;4.466;2023-06-22T10:06:08;21.40;;;12.68;;
18445;SDS011;9352;50.888;4.466;2023-06-22T10:08:35;19.05;;;13.50;;
18445;SDS011;9352;50.888;4.466;2023-06-22T10:13:29;28.05;;;15.25;;
18445;SDS011;9352;50.888;4.466;2023-06-22T10:15:56;27.40;;;15.52;;
18445;SDS011;9352;50.888;4.466;2023-06-22T10:18:23;30.08;;;17.05;;
18445;SDS011;9352;50.888;4.466;2023-06-22T10:20:51;30.45;;;16.50;;
18445;SDS011;9352;50.888;4.466;2023-06-22T10:23:18;25.88;;;16.15;;
18445;SDS011;9352;50.888;4.466;2023-06-22T10:25:46;25.35;;;16.02;;
18445;SDS011;9352;50.888;4.466;2023-06-22T10:28:13;24.65;;;15.07;;
18445;SDS011;9352;50.888;4.466;2023-06-22T10:30:40;21.20;;;15.57;;
18445;SDS011;9352;50.888;4.466;2023-06-22T10:33:08;24.35;;;15.68;;
18445;SDS011;9352;50.888;4.466;2023-06-22T10:35:35;24.00;;;16.10;;
18445;SDS011;9352;50.888;4.466;2023-06-22T10:38:05;26.30;;;16.80;;
18445;SDS011;9352;50.888;4.466;2023-06-22T10:40:33;25.45;;;16.55;;
18445;SDS011;9352;50.888;4.466;2023-06-22T10:43:00;26.42;;;17.33;;
18445;SDS011;9352;50.888;4.466;2023-06-22T10:45:27;28.10;;;18.13;;
18445;SDS011;9352;50.888;4.466;2023-06-22T10:47:54;26.63;;;18.30;;
18445;SDS011;9352;50.888;4.466;2023-06-22T10:50:21;30.92;;;19.00;;
18445;SDS011;9352;50.888;4.466;2023-06-22T10:52:49;30.23;;;19.10;;
18445;SDS011;9352;50.888;4.466;2023-06-22T10:55:17;29.20;;;20.73;;
18445;SDS011;9352;50.888;4.466;2023-06-22T10:57:44;27.48;;;18.80;;
18445;SDS011;9352;50.888;4.466;2023-06-22T11:00:12;28.67;;;19.90;;
18445;SDS011;9352;50.888;4.466;2023-06-22T11:02:40;31.75;;;21.70;;
18445;SDS011;9352;50.888;4.466;2023-06-22T11:05:08;33.25;;;21.30;;
18445;SDS011;9352;50.888;4.466;2023-06-22T11:07:35;35.38;;;22.33;;
18445;SDS011;9352;50.888;4.466;2023-06-22T11:10:03;36.40;;;22.77;;
18445;SDS011;9352;50.888;4.466;2023-06-22T11:12:32;39.17;;;22.88;;
18445;SDS011;9352;50.888;4.466;2023-06-22T11:14:58;36.15;;;23.33;;
18445;SDS011;9352;50.888;4.466;2023-06-22T11:17:25;35.15;;;22.33;;
18445;SDS011;9352;50.888;4.466;2023-06-22T11:19:52;29.23;;;20.63;;
18445;SDS011;9352;50.888;4.466;2023-06-22T11:22:19;33.15;;;22.23;;
18445;SDS011;9352;50.888;4.466;2023-06-22T11:24:46;35.60;;;22.65;;
18445;SDS011;9352;50.888;4.466;2023-06-22T11:27:13;35.95;;;20.15;;
18445;SDS011;9352;50.888;4.466;2023-06-22T11:29:41;33.15;;;23.58;;
18445;SDS011;9352;50.888;4.466;2023-06-22T11:32:08;35.25;;;21.08;;
18445;SDS011;9352;50.888;4.466;2023-06-22T11:34:35;29.83;;;19.60;;
18445;SDS011;9352;50.888;4.466;2023-06-22T11:37:02;35.67;;;22.23;;
18445;SDS011;9352;50.888;4.466;2023-06-22T11:39:29;36.08;;;23.10;;
18445;SDS011;9352;50.888;4.466;2023-06-22T11:41:56;29.40;;;19.90;;
18445;SDS011;9352;50.888;4.466;2023-06-22T11:44:23;34.42;;;22.02;;
18445;SDS011;9352;50.888;4.466;2023-06-22T11:46:51;30.40;;;20.50;;
18445;SDS011;9352;50.888;4.466;2023-06-22T11:49:18;29.05;;;20.55;;
18445;SDS011;9352;50.888;4.466;2023-06-22T11:51:45;31.85;;;21.13;;
18445;SDS011;9352;50.888;4.466;2023-06-22T11:54:11;28.23;;;20.83;;
18445;SDS011;9352;50.888;4.466;2023-06-22T11:56:38;32.40;;;20.90;;
18445;SDS011;9352;50.888;4.466;2023-06-22T11:59:05;34.10;;;21.35;;
18445;SDS011;9352;50.888;4.466;2023-06-22T12:01:32;29.75;;;20.38;;
18445;SDS011;9352;50.888;4.466;2023-06-22T12:04:00;28.30;;;20.85;;
18445;SDS011;9352;50.888;4.466;2023-06-22T12:06:30;34.92;;;20.90;;
18445;SDS011;9352;50.888;4.466;2023-06-22T12:08:58;29.83;;;20.27;;
18445;SDS011;9352;50.888;4.466;2023-06-22T12:11:25;29.83;;;19.42;;
18445;SDS011;9352;50.888;4.466;2023-06-22T12:13:52;28.80;;;20.02;;
18445;SDS011;9352;50.888;4.466;2023-06-22T12:16:18;32.35;;;22.20;;
18445;SDS011;9352;50.888;4.466;2023-06-22T12:18:46;33.22;;;21.40;;
18445;SDS011;9352;50.888;4.466;2023-06-22T12:21:15;36.30;;;22.67;;
18445;SDS011;9352;50.888;4.466;2023-06-22T12:23:42;34.33;;;21.70;;
18445;SDS011;9352;50.888;4.466;2023-06-22T12:26:09;35.65;;;22.40;;
18445;SDS011;9352;50.888;4.466;2023-06-22T12:28:35;40.47;;;24.13;;
18445;SDS011;9352;50.888;4.466;2023-06-22T12:31:02;37.42;;;24.35;;
18445;SDS011;9352;50.888;4.466;2023-06-22T12:33:29;36.58;;;24.40;;
18445;SDS011;9352;50.888;4.466;2023-06-22T12:35:56;37.85;;;24.58;;
18445;SDS011;9352;50.888;4.466;2023-06-22T12:38:24;36.38;;;23.98;;
18445;SDS011;9352;50.888;4.466;2023-06-22T12:40:51;37.90;;;25.35;;
18445;SDS011;9352;50.888;4.466;2023-06-22T12:43:18;45.20;;;26.52;;
18445;SDS011;9352;50.888;4.466;2023-06-22T12:45:45;45.60;;;27.65;;
18445;SDS011;9352;50.888;4.466;2023-06-22T12:48:12;53.63;;;28.63;;
18445;SDS011;9352;50.888;4.466;2023-06-22T12:50:39;45.50;;;28.13;;
18445;SDS011;9352;50.888;4.466;2023-06-22T12:53:06;47.20;;;29.65;;
18445;SDS011;9352;50.888;4.466;2023-06-22T12:55:34;44.22;;;28.70;;
18445;SDS011;9352;50.888;4.466;2023-06-22T12:58:01;45.45;;;28.75;;
18445;SDS011;9352;50.888;4.466;2023-06-22T13:00:28;48.08;;;29.90;;
18445;SDS011;9352;50.888;4.466;2023-06-22T13:02:55;45.15;;;29.40;;
18445;SDS011;9352;50.888;4.466;2023-06-22T13:05:22;46.38;;;29.58;;
18445;SDS011;9352;50.888;4.466;2023-06-22T13:07:49;51.17;;;31.90;;
18445;SDS011;9352;50.888;4.466;2023-06-22T13:10:15;54.80;;;32.80;;
18445;SDS011;9352;50.888;4.466;2023-06-22T13:12:44;59.78;;;34.33;;
18445;SDS011;9352;50.888;4.466;2023-06-22T13:15:10;50.60;;;30.83;;
18445;SDS011;9352;50.888;4.466;2023-06-22T13:17:37;50.22;;;31.98;;
18445;SDS011;9352;50.888;4.466;2023-06-22T13:20:05;59.47;;;34.45;;
18445;SDS011;9352;50.888;4.466;2023-06-22T13:22:33;53.10;;;33.25;;
18445;SDS011;9352;50.888;4.466;2023-06-22T13:25:05;52.17;;;31.65;;
18445;SDS011;9352;50.888;4.466;2023-06-22T13:27:36;50.08;;;31.88;;
18445;SDS011;9352;50.888;4.466;2023-06-22T13:30:05;56.10;;;33.55;;
18445;SDS011;9352;50.888;4.466;2023-06-22T13:32:33;51.55;;;32.83;;
18445;SDS011;9352;50.888;4.466;2023-06-22T13:35:00;50.33;;;32.08;;
18445;SDS011;9352;50.888;4.466;2023-06-22T13:37:27;52.60;;;32.05;;
18445;SDS011;9352;50.888;4.466;2023-06-22T13:39:54;50.33;;;31.02;;
18445;SDS011;9352;50.888;4.466;2023-06-22T13:42:24;44.53;;;28.23;;
18445;SDS011;9352;50.888;4.466;2023-06-22T13:44:51;45.53;;;27.98;;
18445;SDS011;9352;50.888;4.466;2023-06-22T13:47:19;40.53;;;27.67;;
18445;SDS011;9352;50.888;4.466;2023-06-22T13:49:46;42.25;;;28.98;;
18445;SDS011;9352;50.888;4.466;2023-06-22T13:52:13;50.25;;;29.63;;
18445;SDS011;9352;50.888;4.466;2023-06-22T13:54:40;46.10;;;29.52;;
18445;SDS011;9352;50.888;4.466;2023-06-22T13:57:07;46.20;;;30.30;;
18445;SDS011;9352;50.888;4.466;2023-06-22T13:59:34;45.15;;;29.73;;
18445;SDS011;9352;50.888;4.466;2023-06-22T14:02:01;44.35;;;28.48;;
18445;SDS011;9352;50.888;4.466;2023-06-22T14:04:29;50.45;;;29.63;;
18445;SDS011;9352;50.888;4.466;2023-06-22T14:06:56;48.75;;;29.92;;
18445;SDS011;9352;50.888;4.466;2023-06-22T14:09:23;45.60;;;29.35;;
18445;SDS011;9352;50.888;4.466;2023-06-22T14:11:50;43.97;;;28.42;;
18445;SDS011;9352;50.888;4.466;2023-06-22T14:14:17;44.67;;;30.02;;
18445;SDS011;9352;50.888;4.466;2023-06-22T14:16:44;49.25;;;29.27;;
18445;SDS011;9352;50.888;4.466;2023-06-22T14:19:11;43.75;;;28.05;;
18445;SDS011;9352;50.888;4.466;2023-06-22T14:21:39;50.83;;;29.67;;
18445;SDS011;9352;50.888;4.466;2023-06-22T14:24:06;56.95;;;31.88;;
18445;SDS011;9352;50.888;4.466;2023-06-22T14:26:33;57.00;;;32.65;;
18445;SDS011;9352;50.888;4.466;2023-06-22T14:28:59;50.10;;;31.23;;
18445;SDS011;9352;50.888;4.466;2023-06-22T14:31:26;51.95;;;32.15;;
18445;SDS011;9352;50.888;4.466;2023-06-22T14:33:53;48.88;;;29.85;;
18445;SDS011;9352;50.888;4.466;2023-06-22T14:36:20;50.85;;;31.30;;
18445;SDS011;9352;50.888;4.466;2023-06-22T14:38:48;50.75;;;31.42;;
18445;SDS011;9352;50.888;4.466;2023-06-22T14:41:15;57.30;;;31.70;;
18445;SDS011;9352;50.888;4.466;2023-06-22T14:43:45;49.83;;;32.05;;
18445;SDS011;9352;50.888;4.466;2023-06-22T14:46:13;54.78;;;30.77;;
18445;SDS011;9352;50.888;4.466;2023-06-22T14:48:40;45.33;;;30.02;;
18445;SDS011;9352;50.888;4.466;2023-06-22T14:51:07;49.90;;;32.65;;